createdAt,value
2022-10-16T00:01:19.789Z,1.80
2022-10-16T00:03:49.349Z,2.80
2022-10-16T00:06:21.081Z,0.90
2022-10-16T00:08:49.976Z,2.92
2022-10-16T00:11:22.879Z,4.93
2022-10-16T00:13:53.084Z,7.18
2022-10-16T00:16:21.368Z,3.75
2022-10-16T00:18:49.954Z,2.67
2022-10-16T00:21:22.311Z,3.38
2022-10-16T00:23:53.715Z,0.68
2022-10-16T00:26:22.346Z,3.47
2022-10-16T00:28:51.621Z,2.53
2022-10-16T00:31:22.703Z,3.65
2022-10-16T00:33:51.419Z,3.20
2022-10-16T00:36:23.381Z,1.85
2022-10-16T00:38:54.771Z,2.90
2022-10-16T00:41:25.338Z,4.28
2022-10-16T00:43:55.420Z,1.90
2022-10-16T00:46:25.848Z,4.03
2022-10-16T00:48:58.512Z,15.15
2022-10-16T00:51:33.874Z,4.38
2022-10-16T00:54:03.603Z,4.70
2022-10-16T00:56:31.727Z,3.13
2022-10-16T00:59:01.897Z,3.30
2022-10-16T01:01:30.691Z,2.10
2022-10-16T01:03:58.918Z,3.83
2022-10-16T01:06:38.545Z,1.58
2022-10-16T01:09:16.199Z,3.30
2022-10-16T01:11:52.325Z,2.25
2022-10-16T01:14:39.171Z,3.85
2022-10-16T01:17:13.764Z,2.88
2022-10-16T01:20:03.604Z,3.20
2022-10-16T01:22:45.827Z,0.90
2022-10-16T01:25:25.754Z,5.63
2022-10-16T01:27:55.406Z,2.95
2022-10-16T01:30:27.949Z,4.57
2022-10-16T01:33:01.014Z,1.98
2022-10-16T01:35:32.473Z,3.78
2022-10-16T01:38:06.145Z,2.83
2022-10-16T01:40:36.694Z,4.70
2022-10-16T01:43:10.459Z,2.22
2022-10-16T01:45:39.512Z,5.25
2022-10-16T01:48:10.752Z,5.35
2022-10-16T01:50:42.706Z,4.32
2022-10-16T01:53:15.693Z,1.48
2022-10-16T01:55:48.354Z,3.85
2022-10-16T01:58:18.004Z,6.53
2022-10-16T02:00:48.393Z,3.70
2022-10-16T02:03:20.577Z,4.55
2022-10-16T02:05:52.214Z,2.92
2022-10-16T02:08:21.189Z,1.48
2022-10-16T02:10:49.407Z,3.85
2022-10-16T02:13:23.839Z,5.15
2022-10-16T02:15:52.099Z,1.80
2022-10-16T02:18:21.002Z,3.92
2022-10-16T02:20:55.764Z,2.67
2022-10-16T02:23:30.299Z,3.08
2022-10-16T02:26:01.305Z,6.38
2022-10-16T02:28:39.232Z,2.60
2022-10-16T02:31:13.451Z,5.25
2022-10-16T02:33:45.244Z,5.80
2022-10-16T02:38:42.740Z,2.22
2022-10-16T02:41:11.440Z,4.40
2022-10-16T02:43:41.031Z,8.85
2022-10-16T02:46:09.475Z,2.80
2022-10-16T02:48:37.560Z,4.72
2022-10-16T02:51:06.019Z,2.90
2022-10-16T02:53:34.166Z,3.50
2022-10-16T02:56:02.270Z,5.15
2022-10-16T02:58:30.511Z,5.88
2022-10-16T03:01:00.044Z,1.90
2022-10-16T03:03:28.204Z,4.47
2022-10-16T03:05:56.565Z,4.47
2022-10-16T03:08:26.291Z,1.45
2022-10-16T03:10:54.756Z,3.00
2022-10-16T03:13:23.244Z,4.13
2022-10-16T03:15:51.727Z,5.80
2022-10-16T03:18:21.250Z,2.33
2022-10-16T03:20:49.590Z,1.92
2022-10-16T03:23:17.841Z,4.05
2022-10-16T03:25:47.324Z,2.83
2022-10-16T03:28:16.675Z,4.03
2022-10-16T03:30:45.917Z,3.67
2022-10-16T03:33:14.452Z,0.55
2022-10-16T03:35:44.112Z,5.78
2022-10-16T03:38:12.289Z,3.85
2022-10-16T03:40:40.384Z,2.50
2022-10-16T03:43:08.683Z,2.83
2022-10-16T03:45:36.989Z,2.40
2022-10-16T03:48:05.251Z,5.53
2022-10-16T03:50:33.400Z,3.40
2022-10-16T03:53:02.869Z,4.10
2022-10-16T03:55:31.072Z,0.50
2022-10-16T03:57:59.210Z,3.40
2022-10-16T04:00:27.378Z,3.05
2022-10-16T04:02:55.717Z,4.45
2022-10-16T04:05:24.035Z,1.65
2022-10-16T04:07:52.182Z,1.55
2022-10-16T04:10:21.647Z,3.30
2022-10-16T04:12:50.099Z,0.98
2022-10-16T04:15:18.295Z,2.60
2022-10-16T04:17:46.296Z,3.78
2022-10-16T04:20:14.605Z,7.95
2022-10-16T04:22:42.814Z,2.75
2022-10-16T04:25:12.347Z,5.43
2022-10-16T04:27:45.191Z,5.53
2022-10-16T04:30:14.653Z,5.10
2022-10-16T04:32:43.191Z,5.50
2022-10-16T04:35:11.467Z,4.00
2022-10-16T04:37:39.618Z,4.82
2022-10-16T04:40:08.668Z,4.13
2022-10-16T04:42:36.881Z,4.28
2022-10-16T04:45:07.600Z,1.77
2022-10-16T04:47:35.721Z,5.22
2022-10-16T04:50:04.003Z,1.88
2022-10-16T04:52:32.713Z,4.32
2022-10-16T04:55:03.515Z,2.38
2022-10-16T04:57:31.883Z,5.82
2022-10-16T05:00:00.120Z,3.50
2022-10-16T05:02:29.643Z,4.57
2022-10-16T05:04:57.751Z,2.55
2022-10-16T05:07:26.320Z,3.55
2022-10-16T05:09:54.728Z,1.80
2022-10-16T05:12:22.876Z,3.92
2022-10-16T05:14:51.018Z,3.30
2022-10-16T05:17:19.122Z,0.93
2022-10-16T05:19:48.505Z,3.88
2022-10-16T05:22:16.665Z,6.10
2022-10-16T05:24:44.846Z,2.78
2022-10-16T05:27:19.824Z,7.45
2022-10-16T05:29:48.789Z,3.95
2022-10-16T05:32:17.800Z,3.33
2022-10-16T05:34:46.757Z,1.90
2022-10-16T05:37:16.172Z,3.50
2022-10-16T05:39:44.372Z,4.57
2022-10-16T05:42:12.565Z,4.45
2022-10-16T05:44:40.838Z,4.10
2022-10-16T05:47:09.007Z,4.88
2022-10-16T05:49:39.173Z,5.65
2022-10-16T05:52:09.542Z,4.07
2022-10-16T05:54:38.995Z,3.38
2022-10-16T05:57:07.836Z,3.55
2022-10-16T05:59:35.958Z,3.65
2022-10-16T06:02:04.124Z,3.80
2022-10-16T06:04:32.253Z,1.35
2022-10-16T06:07:02.513Z,5.22
2022-10-16T06:09:30.577Z,7.10
2022-10-16T06:12:00.051Z,6.20
2022-10-16T06:14:28.432Z,5.32
2022-10-16T06:16:56.639Z,2.42
2022-10-16T06:19:25.135Z,6.63
2022-10-16T06:21:53.237Z,4.78
2022-10-16T06:24:21.610Z,7.72
2022-10-16T06:26:49.688Z,7.47
2022-10-16T06:29:19.141Z,3.67
2022-10-16T06:31:47.278Z,6.30
2022-10-16T06:34:15.364Z,1.95
2022-10-16T06:36:44.520Z,3.40
2022-10-16T06:39:12.616Z,5.18
2022-10-16T06:41:40.861Z,4.80
2022-10-16T06:44:09.682Z,3.53
2022-10-16T06:46:39.283Z,5.20
2022-10-16T06:49:07.405Z,2.05
2022-10-16T06:51:40.557Z,5.85
2022-10-16T06:54:11.217Z,5.47
2022-10-16T06:56:39.393Z,10.15
2022-10-16T06:59:07.718Z,2.22
2022-10-16T07:01:36.064Z,3.63
2022-10-16T07:04:05.652Z,4.90
2022-10-16T07:06:35.364Z,4.97
2022-10-16T07:09:06.445Z,2.67
2022-10-16T07:11:35.718Z,5.32
2022-10-16T07:14:03.998Z,2.05
2022-10-16T07:16:34.296Z,5.55
2022-10-16T07:19:04.143Z,3.55
2022-10-16T07:21:37.210Z,6.15
2022-10-16T07:24:07.537Z,1.25
2022-10-16T07:26:37.877Z,3.95
2022-10-16T07:29:06.215Z,7.60
2022-10-16T07:31:34.587Z,6.88
2022-10-16T07:34:03.079Z,10.20
2022-10-16T07:36:31.318Z,6.68
2022-10-16T07:39:00.896Z,9.68
2022-10-16T07:41:29.869Z,4.32
2022-10-16T07:44:01.333Z,3.53
2022-10-16T07:48:57.723Z,4.60
2022-10-16T07:51:27.429Z,6.45
2022-10-16T07:53:55.726Z,5.63
2022-10-16T07:56:25.357Z,5.50
2022-10-16T07:58:54.175Z,7.82
2022-10-16T08:01:23.061Z,5.63
2022-10-16T08:03:52.705Z,3.15
2022-10-16T08:06:26.670Z,6.22
2022-10-16T08:08:57.003Z,4.80
2022-10-16T08:11:27.061Z,9.25
2022-10-16T08:13:55.265Z,16.80
2022-10-16T08:16:23.756Z,7.80
2022-10-16T08:18:52.838Z,8.60
2022-10-16T08:21:24.179Z,12.50
2022-10-16T08:23:57.093Z,8.80
2022-10-16T08:26:28.702Z,3.63
2022-10-16T08:28:57.350Z,2.53
2022-10-16T08:31:27.362Z,13.25
2022-10-16T08:33:55.563Z,10.02
2022-10-16T08:36:23.897Z,12.32
2022-10-16T08:38:55.241Z,5.72
2022-10-16T08:44:28.812Z,4.82
2022-10-16T08:47:09.155Z,6.40
2022-10-16T08:49:39.373Z,6.45
2022-10-16T08:52:14.752Z,4.72
2022-10-16T08:54:45.905Z,6.55
2022-10-16T08:57:21.595Z,8.23
2022-10-16T08:59:52.632Z,8.45
2022-10-16T09:02:29.842Z,4.40
2022-10-16T09:05:12.986Z,7.80
2022-10-16T09:07:50.148Z,8.02
2022-10-16T09:10:30.140Z,14.75
2022-10-16T09:13:09.944Z,7.90
2022-10-16T09:15:46.559Z,10.20
2022-10-16T09:18:20.533Z,5.20
2022-10-16T09:20:54.077Z,8.93
2022-10-16T09:23:27.790Z,5.45
2022-10-16T09:25:57.854Z,7.40
2022-10-16T09:28:27.788Z,6.95
2022-10-16T09:30:55.988Z,5.20
2022-10-16T09:33:27.672Z,3.75
2022-10-16T09:35:59.833Z,11.90
2022-10-16T09:38:30.872Z,14.13
2022-10-16T09:41:03.083Z,4.72
2022-10-16T09:43:37.742Z,7.68
2022-10-16T09:46:07.908Z,10.82
2022-10-16T09:48:39.872Z,3.65
2022-10-16T09:51:18.285Z,9.70
2022-10-16T09:53:48.139Z,6.30
2022-10-16T09:56:24.689Z,3.17
2022-10-16T09:58:55.971Z,3.08
2022-10-16T10:01:34.086Z,9.32
2022-10-16T10:04:04.008Z,5.68
2022-10-16T10:06:34.746Z,7.30
2022-10-16T10:09:07.215Z,3.63
2022-10-16T10:14:41.815Z,5.82
2022-10-16T10:17:19.504Z,4.63
2022-10-16T10:19:51.579Z,7.45
2022-10-16T10:22:32.215Z,4.05
2022-10-16T10:25:14.765Z,6.75
2022-10-16T10:27:53.490Z,4.28
2022-10-16T10:30:27.804Z,9.00
2022-10-16T10:33:10.702Z,3.75
2022-10-16T10:35:46.312Z,6.60
2022-10-16T10:38:29.890Z,6.47
2022-10-16T10:41:11.496Z,2.50
2022-10-16T10:43:52.563Z,2.60
2022-10-16T10:46:31.136Z,3.35
2022-10-16T10:49:14.426Z,4.88
2022-10-16T10:51:54.867Z,8.65
2022-10-16T10:54:27.654Z,5.07
2022-10-16T10:57:02.254Z,6.05
2022-10-16T10:59:51.170Z,2.63
2022-10-16T11:02:29.109Z,8.90
2022-10-16T11:05:24.662Z,3.08
2022-10-16T11:07:57.677Z,4.97
2022-10-16T11:10:31.327Z,4.25
2022-10-16T11:13:09.229Z,9.82
2022-10-16T11:15:41.844Z,7.50
2022-10-16T11:18:22.195Z,4.63
2022-10-16T11:20:55.860Z,7.70
2022-10-16T11:23:29.372Z,6.80
2022-10-16T11:26:02.089Z,4.30
2022-10-16T11:28:35.085Z,7.07
2022-10-16T11:31:10.355Z,4.95
2022-10-16T11:33:45.064Z,7.10
2022-10-16T11:36:19.364Z,3.33
2022-10-16T11:38:56.223Z,4.03
2022-10-16T11:41:30.566Z,4.00
2022-10-16T11:44:25.448Z,8.05
2022-10-16T11:47:24.411Z,3.58
2022-10-16T11:49:55.322Z,3.03
2022-10-16T11:52:28.315Z,6.15
2022-10-16T11:55:01.614Z,7.63
2022-10-16T11:57:34.189Z,5.43
2022-10-16T12:00:07.881Z,3.40
2022-10-16T12:02:51.716Z,5.53
2022-10-16T12:05:34.130Z,13.02
2022-10-16T12:08:12.016Z,7.35
2022-10-16T12:10:41.414Z,5.95
2022-10-16T12:13:34.023Z,3.85
2022-10-16T12:16:21.439Z,9.10
2022-10-16T12:18:50.311Z,3.70
2022-10-16T12:21:21.234Z,5.68
2022-10-16T12:23:51.520Z,7.35
2022-10-16T12:26:27.659Z,6.65
2022-10-16T12:28:56.997Z,9.05
2022-10-16T12:31:25.580Z,6.57
2022-10-16T12:34:00.568Z,5.45
2022-10-16T12:36:33.505Z,3.88
2022-10-16T12:39:03.210Z,4.97
2022-10-16T12:41:33.990Z,9.10
2022-10-16T12:44:03.242Z,7.65
2022-10-16T12:46:40.766Z,8.70
2022-10-16T12:49:32.492Z,4.75
2022-10-16T12:54:32.367Z,8.43
2022-10-16T12:57:21.363Z,10.07
2022-10-16T12:59:56.726Z,5.47
2022-10-16T13:02:51.602Z,5.63
2022-10-16T13:05:32.538Z,7.75
2022-10-16T13:08:17.840Z,8.85
2022-10-16T13:10:59.381Z,7.28
2022-10-16T13:13:50.172Z,7.45
2022-10-16T13:16:25.996Z,5.03
2022-10-16T13:19:09.379Z,8.18
2022-10-16T13:21:53.388Z,2.25
2022-10-16T13:24:34.960Z,6.65
2022-10-16T13:29:37.395Z,4.63
2022-10-16T13:32:13.031Z,7.60
2022-10-16T13:34:47.928Z,4.43
2022-10-16T13:37:20.776Z,5.03
2022-10-16T13:39:51.677Z,3.60
2022-10-16T13:42:27.965Z,6.50
2022-10-16T13:44:58.545Z,7.75
2022-10-16T13:47:29.890Z,5.45
2022-10-16T13:55:01.987Z,4.20
2022-10-16T13:57:31.239Z,1.50
2022-10-16T13:59:59.449Z,7.95
2022-10-16T14:02:31.689Z,4.10
2022-10-16T14:05:00.782Z,3.90
2022-10-16T14:07:32.343Z,8.55
2022-10-16T14:12:32.554Z,4.00
2022-10-16T14:15:02.396Z,6.00
2022-10-16T14:17:33.312Z,4.28
2022-10-16T14:20:06.260Z,8.70
2022-10-16T14:22:37.966Z,3.75
2022-10-16T14:25:27.595Z,6.82
2022-10-16T14:30:37.367Z,3.75
2022-10-16T14:33:07.549Z,0.93
2022-10-16T14:35:38.190Z,5.82
2022-10-16T14:38:08.211Z,3.80
2022-10-16T14:40:39.245Z,3.58
2022-10-16T14:43:07.920Z,7.55
2022-10-16T14:45:37.769Z,5.38
2022-10-16T14:48:20.016Z,6.18
2022-10-16T14:50:48.696Z,10.23
2022-10-16T14:53:17.166Z,12.18
2022-10-16T14:55:47.750Z,13.27
2022-10-16T14:58:18.648Z,16.27
2022-10-16T15:00:46.851Z,7.68
2022-10-16T15:03:15.416Z,12.63
2022-10-16T15:05:43.556Z,10.40
2022-10-16T15:08:11.711Z,17.75
2022-10-16T15:10:43.421Z,14.13
2022-10-16T15:13:15.031Z,16.90
2022-10-16T15:18:13.281Z,8.65
2022-10-16T15:20:41.837Z,6.35
2022-10-16T15:23:16.142Z,12.65
2022-10-16T15:25:46.384Z,11.02
2022-10-16T15:28:17.094Z,12.73
2022-10-16T15:30:46.435Z,9.82
2022-10-16T15:33:16.554Z,5.00
2022-10-16T15:35:44.941Z,11.00
2022-10-16T15:38:14.866Z,19.00
2022-10-16T15:40:43.410Z,9.80
2022-10-16T15:43:12.638Z,9.52
2022-10-16T15:45:42.405Z,9.05
2022-10-16T15:48:13.940Z,7.25
2022-10-16T15:53:12.498Z,6.50
2022-10-16T15:55:40.712Z,8.02
2022-10-16T15:58:08.938Z,14.38
2022-10-16T16:00:37.100Z,15.88
2022-10-16T16:03:06.805Z,15.63
2022-10-16T16:05:36.397Z,10.13
2022-10-16T16:08:04.669Z,14.38
2022-10-16T16:10:32.964Z,11.70
2022-10-16T16:13:01.176Z,13.27
2022-10-16T16:15:29.405Z,16.08
2022-10-16T16:17:57.635Z,10.40
2022-10-16T16:20:27.393Z,16.05
2022-10-16T16:22:56.017Z,18.70
2022-10-16T16:25:24.388Z,17.27
2022-10-16T16:27:52.683Z,13.15
2022-10-16T16:30:23.757Z,12.95
2022-10-16T16:32:55.564Z,19.25
2022-10-16T16:35:23.751Z,10.55
2022-10-16T16:37:53.383Z,13.15
2022-10-16T16:40:21.629Z,17.80
2022-10-16T16:42:50.712Z,14.75
2022-10-16T16:45:18.868Z,13.45
2022-10-16T16:47:47.141Z,20.40
2022-10-16T16:50:15.429Z,14.90
2022-10-16T16:52:43.602Z,13.25
2022-10-16T16:55:13.134Z,26.80
2022-10-16T16:57:41.376Z,15.75
2022-10-16T17:00:11.041Z,13.40
2022-10-16T17:02:44.250Z,21.88
2022-10-16T17:05:13.137Z,14.65
2022-10-16T17:07:41.924Z,19.60
2022-10-16T17:10:12.503Z,16.70
2022-10-16T17:12:40.794Z,19.53
2022-10-16T17:15:10.241Z,12.40
2022-10-16T17:17:38.355Z,16.90
2022-10-16T17:20:07.294Z,16.45
2022-10-16T17:22:35.526Z,15.13
2022-10-16T17:25:04.626Z,18.58
2022-10-16T17:27:34.524Z,18.48
2022-10-16T17:30:02.682Z,17.23
2022-10-16T17:32:31.032Z,15.20
2022-10-16T17:34:59.227Z,12.75
2022-10-16T17:37:27.405Z,16.90
2022-10-16T17:39:55.783Z,20.58
2022-10-16T17:42:24.303Z,22.38
2022-10-16T17:44:54.271Z,16.90
2022-10-16T17:47:22.546Z,18.15
2022-10-16T17:49:51.262Z,23.10
2022-10-16T17:52:19.567Z,38.95
2022-10-16T17:54:52.104Z,24.08
2022-10-16T17:57:20.719Z,20.20
2022-10-16T17:59:48.859Z,25.60
2022-10-16T18:02:18.583Z,26.52
2022-10-16T18:04:46.710Z,16.40
2022-10-16T18:07:15.427Z,17.75
2022-10-16T18:10:10.879Z,15.25
2022-10-16T18:12:32.101Z,27.23
2022-10-16T18:15:00.248Z,27.83
2022-10-16T18:17:31.632Z,23.58
2022-10-16T18:19:59.771Z,28.55
2022-10-16T18:22:29.338Z,30.10
2022-10-16T18:24:58.459Z,26.15
2022-10-16T18:27:26.796Z,25.65
2022-10-16T18:29:57.611Z,27.35
2022-10-16T18:32:25.963Z,32.60
2022-10-16T18:34:55.556Z,22.98
2022-10-16T18:37:23.777Z,24.83
2022-10-16T18:39:52.031Z,31.27
2022-10-16T18:42:20.279Z,32.17
2022-10-16T18:44:51.866Z,31.77
2022-10-16T18:47:20.959Z,19.85
2022-10-16T18:49:50.282Z,31.55
2022-10-16T18:52:22.093Z,42.17
2022-10-16T18:54:50.368Z,34.65
2022-10-16T18:57:18.714Z,27.27
2022-10-16T18:59:46.987Z,36.83
2022-10-16T19:02:15.349Z,31.17
2022-10-16T19:04:43.683Z,18.30
2022-10-16T19:07:12.177Z,27.88
2022-10-16T19:09:41.912Z,32.70
2022-10-16T19:12:10.507Z,23.40
2022-10-16T19:14:38.757Z,44.88
2022-10-16T19:17:07.089Z,22.42
2022-10-16T19:19:38.470Z,29.45
2022-10-16T19:22:14.672Z,30.33
2022-10-16T19:24:45.637Z,24.95
2022-10-16T19:27:13.745Z,28.67
2022-10-16T19:29:42.019Z,33.83
2022-10-16T19:32:10.385Z,25.00
2022-10-16T19:34:38.970Z,32.67
2022-10-16T19:37:10.653Z,34.85
2022-10-16T19:39:39.082Z,29.50
2022-10-16T19:42:09.408Z,46.78
2022-10-16T19:44:37.677Z,38.70
2022-10-16T19:47:05.901Z,31.80
2022-10-16T19:49:34.120Z,31.90
2022-10-16T19:52:02.377Z,37.90
2022-10-16T19:54:30.878Z,38.80
2022-10-16T19:57:00.401Z,30.83
2022-10-16T19:59:30.296Z,30.83
2022-10-16T20:01:58.838Z,36.25
2022-10-16T20:04:27.521Z,20.90
2022-10-16T20:09:29.187Z,36.20
2022-10-16T20:11:57.559Z,37.33
2022-10-16T20:14:25.890Z,36.78
2022-10-16T20:16:55.902Z,26.10
2022-10-16T20:19:24.484Z,32.03
2022-10-16T20:21:52.781Z,29.73
2022-10-16T20:24:21.077Z,39.22
2022-10-16T20:26:49.770Z,38.05
2022-10-16T20:29:18.051Z,38.40
2022-10-16T20:31:46.460Z,29.15
2022-10-16T20:34:16.861Z,25.02
2022-10-16T20:36:45.673Z,27.42
2022-10-16T20:39:15.044Z,35.90
2022-10-16T20:41:43.739Z,42.05
2022-10-16T20:44:12.311Z,36.90
2022-10-16T20:46:40.922Z,45.58
2022-10-16T20:49:21.622Z,49.75
2022-10-16T20:51:58.765Z,47.85
2022-10-16T20:54:27.163Z,42.10
2022-10-16T20:56:55.482Z,57.17
2022-10-16T20:59:23.751Z,44.60
2022-10-16T21:01:52.234Z,46.00
2022-10-16T21:04:20.464Z,42.25
2022-10-16T21:06:48.757Z,36.45
2022-10-16T21:09:18.395Z,9.55
2022-10-16T21:11:46.701Z,11.80
2022-10-16T21:14:14.903Z,9.25
2022-10-16T21:16:43.481Z,2.70
2022-10-16T21:19:11.681Z,4.47
2022-10-16T21:21:39.974Z,5.30
2022-10-16T21:24:12.241Z,6.40
2022-10-16T21:26:44.704Z,13.65
2022-10-16T21:29:13.149Z,8.60
2022-10-16T21:31:42.120Z,14.43
2022-10-16T21:34:10.793Z,11.82
2022-10-16T21:36:41.133Z,18.70
2022-10-16T21:39:12.325Z,11.60
2022-10-16T21:41:41.061Z,8.10
2022-10-16T21:44:11.069Z,9.60
2022-10-16T21:46:42.084Z,6.65
2022-10-16T21:49:13.586Z,7.18
2022-10-16T21:54:13.792Z,3.42
2022-10-16T21:59:12.673Z,4.25
2022-10-16T22:01:41.309Z,9.57
2022-10-16T22:04:11.327Z,7.15
2022-10-16T22:06:40.186Z,13.15
2022-10-16T22:09:08.638Z,12.60
2022-10-16T22:11:38.081Z,9.35
2022-10-16T22:14:07.807Z,12.57
2022-10-16T22:16:38.016Z,14.32
2022-10-16T22:19:08.172Z,15.73
2022-10-16T22:21:38.809Z,16.50
2022-10-16T22:24:07.629Z,15.37
2022-10-16T22:26:36.796Z,12.27
2022-10-16T22:29:06.332Z,13.65
2022-10-16T22:31:35.390Z,18.25
2022-10-16T22:34:06.306Z,10.55
2022-10-16T22:36:34.955Z,15.48
2022-10-16T22:39:03.625Z,12.20
2022-10-16T22:41:32.086Z,14.73
2022-10-16T22:44:00.299Z,16.48
2022-10-16T22:46:30.694Z,18.67
2022-10-16T22:48:59.197Z,19.45
2022-10-16T22:51:29.249Z,21.92
2022-10-16T22:53:59.082Z,14.30
2022-10-16T22:56:27.459Z,16.08
2022-10-16T22:58:56.059Z,18.63
2022-10-16T23:01:27.457Z,16.02
2022-10-16T23:03:55.979Z,16.55
2022-10-16T23:06:24.217Z,14.40
2022-10-16T23:08:55.156Z,27.40
2022-10-16T23:11:23.736Z,13.50
2022-10-16T23:13:52.109Z,14.48
2022-10-16T23:16:22.378Z,18.05
2022-10-16T23:18:50.900Z,14.63
2022-10-16T23:21:21.290Z,15.88
2022-10-16T23:23:49.932Z,12.38
2022-10-16T23:26:21.647Z,20.90
2022-10-16T23:28:50.275Z,17.08
2022-10-16T23:31:19.176Z,19.48
2022-10-16T23:33:47.334Z,14.05
2022-10-16T23:36:17.840Z,9.90
2022-10-16T23:38:46.716Z,18.45
2022-10-16T23:41:16.297Z,14.40
2022-10-16T23:43:46.126Z,13.85
2022-10-16T23:46:15.679Z,10.63
2022-10-16T23:48:44.322Z,15.57
2022-10-16T23:51:12.787Z,18.45
2022-10-16T23:53:41.298Z,19.23
2022-10-16T23:56:09.669Z,14.38
2022-10-16T23:58:38.219Z,12.15
